Time;durP1;ratioP1;P1;durP2;ratioP2;P2;SDS_P1;SDS_P2;PMS_P1;PMS_P2;Temp;Humidity;BMP_temperature;BMP_pressure;BME280_temperature;BME280_humidity;BME280_pressure;Samples;Min_cycle;Max_cycle;Signal;HPM_P1;HPM_P2
2022/08/14 00:00:16;;;;;;;1999.90;999.90;;;;;;;19.24;100.00;99482.84;5055820;28;21286;-55
2022/08/14 00:03:07;;;;;;;1999.90;999.90;;;;;;;19.19;100.00;99477.00;5058454;28;20131;-51
2022/08/14 00:05:52;;;;;;;1999.90;999.90;;;;;;;19.18;100.00;99481.47;5057368;28;20383;-56
2022/08/14 00:08:36;;;;;;;1999.90;999.90;;;;;;;19.16;100.00;99480.69;5055099;28;20048;-55
2022/08/14 00:11:21;;;;;;;1999.90;999.90;;;;;;;19.17;100.00;99482.41;5054878;28;20064;-53
2022/08/14 00:14:05;;;;;;;1999.90;999.90;;;;;;;19.22;100.00;99479.47;5057189;28;20064;-54
2022/08/14 00:16:51;;;;;;;1999.90;999.90;;;;;;;19.17;100.00;99474.44;5057438;28;20043;-54
2022/08/14 00:19:35;;;;;;;1999.90;999.90;;;;;;;19.17;100.00;99473.59;5057484;28;20098;-54
2022/08/14 00:22:20;;;;;;;1999.90;999.90;;;;;;;19.20;100.00;99468.91;5055307;28;20048;-55
2022/08/14 00:25:07;;;;;;;1999.90;999.90;;;;;;;19.22;100.00;99467.03;5053828;28;20059;-54
2022/08/14 00:27:52;;;;;;;1999.90;999.90;;;;;;;19.29;100.00;99467.47;5052964;28;20539;-55
2022/08/14 00:30:36;;;;;;;1999.90;999.90;;;;;;;19.14;100.00;99448.09;5053250;28;20079;-54
2022/08/14 00:33:20;;;;;;;1999.90;999.90;;;;;;;19.25;100.00;99452.72;5052792;28;20099;-54
2022/08/14 00:36:05;;;;;;;1999.90;999.90;;;;;;;19.20;100.00;99454.81;5052086;28;21967;-54
2022/08/14 00:38:50;;;;;;;1999.90;999.90;;;;;;;19.09;100.00;99452.88;5052291;28;20048;-54
2022/08/14 00:41:34;;;;;;;1999.90;999.90;;;;;;;19.01;100.00;99440.13;5053622;28;20107;-53
2022/08/14 00:44:19;;;;;;;1999.90;999.90;;;;;;;19.04;100.00;99444.34;5051698;28;20048;-56
2022/08/14 00:47:07;;;;;;;1999.90;999.90;;;;;;;19.03;100.00;99446.16;5051214;28;20063;-55
2022/08/14 00:49:55;;;;;;;1999.90;999.90;;;;;;;18.98;100.00;99447.41;5052451;28;20056;-52
2022/08/14 00:52:40;;;;;;;1999.90;999.90;;;;;;;19.05;100.00;99440.75;5051146;28;20404;-53
2022/08/14 00:55:29;;;;;;;1999.90;999.90;;;;;;;18.95;100.00;99432.56;5053238;28;20080;-52
2022/08/14 00:58:29;;;;;;;1999.90;999.90;;;;;;;18.94;100.00;99435.28;5051013;28;20051;-55
2022/08/14 01:01:16;;;;;;;1999.90;999.90;;;;;;;18.97;100.00;99443.06;5051170;28;20045;-54
2022/08/14 01:04:02;;;;;;;1999.90;999.90;;;;;;;18.82;100.00;99436.97;5051847;28;20056;-54
2022/08/14 01:06:50;;;;;;;1999.90;999.90;;;;;;;18.88;100.00;99441.84;5052661;28;20052;-55
2022/08/14 01:09:36;;;;;;;1999.90;999.90;;;;;;;18.85;100.00;99437.59;5053019;28;20055;-54
2022/08/14 01:12:22;;;;;;;1999.90;999.90;;;;;;;18.89;100.00;99438.25;5051378;28;20625;-55
2022/08/14 01:15:07;;;;;;;1999.90;999.90;;;;;;;18.80;100.00;99439.69;5052258;28;20070;-53
2022/08/14 01:21:10;;;;;;;1999.90;999.90;;;;;;;18.83;100.00;99434.19;5050581;28;20052;-53
2022/08/14 01:23:55;;;;;;;1999.90;999.90;;;;;;;18.67;100.00;99441.41;5050975;28;20236;-55
2022/08/14 01:26:41;;;;;;;1999.90;999.90;;;;;;;18.70;100.00;99446.50;5052404;28;20729;-55
2022/08/14 01:29:36;;;;;;;1999.90;999.90;;;;;;;18.66;100.00;99442.38;5053320;28;20412;-54
2022/08/14 01:32:21;;;;;;;1999.90;999.90;;;;;;;18.61;100.00;99436.50;5053658;28;20060;-55
2022/08/14 01:35:07;;;;;;;1999.90;999.90;;;;;;;18.64;100.00;99426.53;5050124;28;20072;-55
2022/08/14 01:37:52;;;;;;;1999.90;999.90;;;;;;;18.65;100.00;99425.59;5054268;28;20051;-54
2022/08/14 01:40:36;;;;;;;1999.90;999.90;;;;;;;18.63;100.00;99429.28;5055883;28;20107;-54
2022/08/14 01:43:21;;;;;;;1999.90;999.90;;;;;;;18.59;100.00;99427.78;5056622;28;20106;-55
2022/08/14 01:46:10;;;;;;;1999.90;999.90;;;;;;;18.50;100.00;99421.28;5053167;28;20561;-54
2022/08/14 01:48:56;;;;;;;1999.90;999.90;;;;;;;18.52;100.00;99422.00;5055173;28;20037;-54
2022/08/14 01:51:43;;;;;;;1999.90;999.90;;;;;;;18.52;100.00;99414.06;5054429;28;20056;-55
2022/08/14 01:54:27;;;;;;;1999.90;999.90;;;;;;;18.32;100.00;99422.44;5056838;28;20055;-55
2022/08/14 01:57:12;;;;;;;1999.90;999.90;;;;;;;18.39;100.00;99423.72;5058405;28;20045;-56
2022/08/14 01:59:57;;;;;;;1999.90;999.90;;;;;;;18.32;100.00;99417.13;5055787;28;20144;-54
2022/08/14 02:02:42;;;;;;;1999.90;999.90;;;;;;;18.29;100.00;99418.16;5055821;28;20977;-55
2022/08/14 02:05:30;;;;;;;1999.90;999.90;;;;;;;18.20;100.00;99419.63;5058217;28;20076;-54
2022/08/14 02:08:15;;;;;;;1999.90;999.90;;;;;;;18.10;100.00;99414.97;5056854;28;20040;-55
2022/08/14 02:11:21;;;;;;;1999.90;999.90;;;;;;;18.03;100.00;99409.19;5055632;28;20515;-54
2022/08/14 02:14:08;;;;;;;1999.90;999.90;;;;;;;18.17;100.00;99403.06;5056482;28;21491;-55
2022/08/14 02:16:54;;;;;;;1999.90;999.90;;;;;;;18.22;100.00;99395.66;5057341;28;20040;-54
2022/08/14 02:19:38;;;;;;;1999.90;999.90;;;;;;;18.31;100.00;99395.06;5056284;28;20111;-54
2022/08/14 02:22:23;;;;;;;1999.90;999.90;;;;;;;18.40;100.00;99388.34;5055992;28;20033;-55
2022/08/14 02:25:07;;;;;;;1999.90;999.90;;;;;;;18.49;100.00;99392.19;5056801;28;20079;-54
2022/08/14 02:27:55;;;;;;;1999.90;999.90;;;;;;;18.56;100.00;99380.25;5060154;28;20060;-55
2022/08/14 02:30:39;;;;;;;1999.90;999.90;;;;;;;18.54;100.00;99390.09;5058721;28;20087;-54
2022/08/14 02:33:26;;;;;;;1999.90;999.90;;;;;;;18.61;100.00;99384.28;5055149;28;20490;-53
2022/08/14 02:36:11;;;;;;;1999.90;999.90;;;;;;;18.57;100.00;99377.50;5056168;28;20077;-53
2022/08/14 02:38:56;;;;;;;1999.90;999.90;;;;;;;18.62;100.00;99377.19;5055922;28;20054;-53
2022/08/14 02:41:41;;;;;;;1999.90;999.90;;;;;;;18.66;100.00;99379.56;5056524;28;20052;-54
2022/08/14 02:44:25;;;;;;;1999.90;999.90;;;;;;;18.69;100.00;99378.50;5057422;28;20063;-53
2022/08/14 02:47:10;;;;;;;1999.90;999.90;;;;;;;18.68;100.00;99384.75;5056478;28;20427;-53
2022/08/14 02:49:55;;;;;;;1999.90;999.90;;;;;;;18.78;100.00;99375.25;5056015;28;20067;-54
2022/08/14 02:52:40;;;;;;;1999.90;999.90;;;;;;;18.80;100.00;99383.13;5058758;28;20498;-53
2022/08/14 02:55:24;;;;;;;1999.90;999.90;;;;;;;18.76;100.00;99381.66;5057990;28;20385;-52
2022/08/14 02:58:09;;;;;;;1999.90;999.90;;;;;;;18.73;100.00;99372.06;5056516;28;20395;-55
2022/08/14 03:00:54;;;;;;;1999.90;999.90;;;;;;;18.83;100.00;99373.16;5054683;28;20040;-54
2022/08/14 03:03:39;;;;;;;1999.90;999.90;;;;;;;18.78;100.00;99377.91;5056682;28;20197;-52
2022/08/14 03:06:24;;;;;;;1999.90;999.90;;;;;;;18.86;100.00;99372.13;5053371;28;20048;-53
2022/08/14 03:09:10;;;;;;;1999.90;999.90;;;;;;;18.78;100.00;99369.13;5054996;28;20072;-55
2022/08/14 03:11:54;;;;;;;1999.90;999.90;;;;;;;18.76;100.00;99371.03;5054807;28;20047;-55
2022/08/14 03:14:45;;;;;;;1999.90;999.90;;;;;;;18.69;100.00;99367.91;5060154;28;20064;-53
2022/08/14 03:17:30;;;;;;;1999.90;999.90;;;;;;;18.72;100.00;99366.81;5055526;28;20837;-54
2022/08/14 03:20:15;;;;;;;1999.90;999.90;;;;;;;18.61;100.00;99357.78;5056252;28;20125;-54
2022/08/14 03:23:01;;;;;;;1999.90;999.90;;;;;;;18.58;100.00;99355.31;5054898;28;20574;-53
2022/08/14 03:25:46;;;;;;;1999.90;999.90;;;;;;;18.61;100.00;99356.94;5054499;28;20048;-52
2022/08/14 03:28:30;;;;;;;1999.90;999.90;;;;;;;18.53;100.00;99354.78;5059012;28;20140;-55
2022/08/14 03:31:22;;;;;;;1999.90;999.90;;;;;;;18.57;100.00;99361.59;5056474;28;20044;-54
2022/08/14 03:34:11;;;;;;;1999.90;999.90;;;;;;;18.54;100.00;99358.28;5054776;28;20038;-54
2022/08/14 03:36:57;;;;;;;1999.90;999.90;;;;;;;18.61;100.00;99356.94;5053548;28;20048;-55
2022/08/14 03:39:41;;;;;;;1999.90;999.90;;;;;;;18.51;100.00;99353.19;5056958;28;20190;-53
2022/08/14 03:42:26;;;;;;;1999.90;999.90;;;;;;;18.45;100.00;99355.25;5054697;28;20048;-55
2022/08/14 03:45:11;;;;;;;1999.90;999.90;;;;;;;18.56;100.00;99367.00;5055434;28;20048;-54
2022/08/14 03:47:56;;;;;;;1999.90;999.90;;;;;;;18.44;100.00;99350.91;5058482;28;21693;-54
2022/08/14 03:50:43;;;;;;;1999.90;999.90;;;;;;;18.51;100.00;99361.97;5054753;28;20094;-54
2022/08/14 03:53:27;;;;;;;1999.90;999.90;;;;;;;18.55;100.00;99357.31;5056007;28;20053;-56
2022/08/14 03:56:15;;;;;;;1999.90;999.90;;;;;;;18.52;100.00;99360.16;5053193;28;20090;-53
2022/08/14 03:59:09;;;;;;;1999.90;999.90;;;;;;;18.47;100.00;99356.97;5052296;28;20944;-55
2022/08/14 04:01:54;;;;;;;1999.90;999.90;;;;;;;18.55;100.00;99354.66;5053130;28;20495;-55
2022/08/14 04:04:38;;;;;;;1999.90;999.90;;;;;;;18.52;100.00;99361.00;5052584;28;20508;-54
2022/08/14 04:07:22;;;;;;;1999.90;999.90;;;;;;;18.55;100.00;99363.47;5056071;28;20473;-55
2022/08/14 04:10:08;;;;;;;1999.90;999.90;;;;;;;18.59;100.00;99364.13;5056584;28;20047;-55
2022/08/14 04:12:53;;;;;;;1999.90;999.90;;;;;;;18.51;100.00;99361.97;5054919;28;20078;-55
2022/08/14 04:15:37;;;;;;;1999.90;999.90;;;;;;;18.56;100.00;99362.53;5058105;28;20068;-55
2022/08/14 04:18:21;;;;;;;1999.90;999.90;;;;;;;18.63;100.00;99355.03;5054213;28;20101;-53
2022/08/14 04:21:07;;;;;;;1999.90;999.90;;;;;;;18.60;100.00;99356.09;5058191;28;20048;-54
2022/08/14 04:23:52;;;;;;;1999.90;999.90;;;;;;;18.65;100.00;99348.69;5055406;28;20135;-54
2022/08/14 04:26:36;;;;;;;1999.90;999.90;;;;;;;18.56;100.00;99354.59;5058174;28;20049;-53
2022/08/14 04:29:21;;;;;;;1999.90;999.90;;;;;;;18.77;100.00;99349.69;5059389;28;20044;-53
2022/08/14 04:32:08;;;;;;;1999.90;999.90;;;;;;;18.68;100.00;99356.41;5058847;28;20049;-55
2022/08/14 04:34:54;;;;;;;1999.90;999.90;;;;;;;18.79;100.00;99358.41;5058808;28;20072;-53
2022/08/14 04:43:44;;;;;;;1999.90;999.90;;;;;;;18.79;100.00;99345.16;5056979;28;19931;-55
2022/08/14 04:46:29;;;;;;;1999.90;999.90;;;;;;;19.01;100.00;99351.66;5055562;28;20128;-55
2022/08/14 04:49:14;;;;;;;1999.90;999.90;;;;;;;18.97;100.00;99345.72;5058482;28;20101;-55
2022/08/14 04:51:59;;;;;;;1999.90;999.90;;;;;;;18.86;100.00;99351.75;5055841;28;20053;-53
2022/08/14 04:54:44;;;;;;;1999.90;999.90;;;;;;;18.82;100.00;99358.22;5056939;28;20092;-55
2022/08/14 04:57:28;;;;;;;1999.90;999.90;;;;;;;18.77;100.00;99355.00;5054847;28;20044;-54
2022/08/14 05:00:13;;;;;;;1999.90;999.90;;;;;;;18.91;100.00;99360.25;5053434;28;20063;-55
2022/08/14 05:02:58;;;;;;;1999.90;999.90;;;;;;;19.02;100.00;99362.19;5053402;28;20388;-55
2022/08/14 05:05:42;;;;;;;1999.90;999.90;;;;;;;19.11;100.00;99355.44;5052378;28;20059;-54
2022/08/14 05:08:28;;;;;;;1999.90;999.90;;;;;;;19.18;100.00;99358.50;5059484;28;20045;-54
2022/08/14 05:11:13;;;;;;;1999.90;999.90;;;;;;;19.04;100.00;99356.78;5052386;28;20095;-54
2022/08/14 05:14:00;;;;;;;1999.90;999.90;;;;;;;19.37;100.00;99348.34;5055184;28;20139;-55
2022/08/14 05:16:45;;;;;;;1999.90;999.90;;;;;;;19.33;100.00;99347.69;5057705;28;20165;-54
2022/08/14 05:19:29;;;;;;;1999.90;999.90;;;;;;;19.10;100.00;99351.06;5060872;28;20051;-54
2022/08/14 05:22:15;;;;;;;1999.90;999.90;;;;;;;19.36;100.00;99358.09;5055444;28;20052;-53
2022/08/14 05:25:00;;;;;;;1999.90;999.90;;;;;;;19.36;100.00;99355.44;5059250;28;20048;-54
2022/08/14 05:27:45;;;;;;;1999.90;999.90;;;;;;;19.15;100.00;99356.91;5055721;28;20040;-54
2022/08/14 05:30:31;;;;;;;1999.90;999.90;;;;;;;19.23;100.00;99343.97;5051291;28;20041;-55
2022/08/14 05:33:17;;;;;;;1999.90;999.90;;;;;;;19.47;100.00;99337.94;5055426;28;20121;-55
2022/08/14 05:36:05;;;;;;;1999.90;999.90;;;;;;;19.39;100.00;99333.13;5056010;28;20178;-54
2022/08/14 05:38:51;;;;;;;1999.90;999.90;;;;;;;19.56;100.00;99338.16;5051273;28;20041;-55
2022/08/14 05:41:35;;;;;;;1999.90;999.90;;;;;;;19.64;100.00;99326.16;5050306;28;20102;-55
2022/08/14 05:44:20;;;;;;;1999.90;999.90;;;;;;;19.56;100.00;99321.34;5051228;28;20052;-53
2022/08/14 05:47:05;;;;;;;1999.90;999.90;;;;;;;19.79;100.00;99317.97;5051465;28;20048;-54
2022/08/14 05:49:49;;;;;;;1999.90;999.90;;;;;;;19.76;100.00;99310.22;5052748;28;20040;-55
2022/08/14 05:52:33;;;;;;;1999.90;999.90;;;;;;;19.88;100.00;99320.91;5053064;28;20075;-54
2022/08/14 05:55:19;;;;;;;1999.90;999.90;;;;;;;19.78;100.00;99313.59;5054697;28;20069;-55
2022/08/14 05:58:05;;;;;;;1999.90;999.90;;;;;;;20.01;100.00;99317.28;5051346;28;20048;-55
2022/08/14 06:00:50;;;;;;;1999.90;999.90;;;;;;;20.28;100.00;99309.13;5053454;28;21724;-55
2022/08/14 06:03:35;;;;;;;1999.90;999.90;;;;;;;20.16;100.00;99314.50;5051288;28;20060;-55
2022/08/14 06:06:19;;;;;;;1999.90;999.90;;;;;;;20.24;100.00;99315.59;5048433;28;20056;-54
2022/08/14 06:09:06;;;;;;;1999.90;999.90;;;;;;;20.32;100.00;99317.72;5050191;28;20051;-54
2022/08/14 06:11:50;;;;;;;1999.90;999.90;;;;;;;20.34;100.00;99315.78;5051838;28;20075;-54
2022/08/14 06:14:36;;;;;;;1999.90;999.90;;;;;;;20.79;100.00;99321.38;5051187;28;20044;-54
2022/08/14 06:17:20;;;;;;;1999.90;999.90;;;;;;;20.83;100.00;99308.66;5050223;28;20041;-54
2022/08/14 06:20:05;;;;;;;1999.90;999.90;;;;;;;20.94;100.00;99308.72;5052320;28;20048;-53
2022/08/14 06:22:49;;;;;;;1999.90;999.90;;;;;;;20.86;100.00;99309.28;5051516;28;20464;-53
2022/08/14 06:25:33;;;;;;;1999.90;999.90;;;;;;;21.37;100.00;99311.63;5051907;28;20391;-52
2022/08/14 06:28:24;;;;;;;1999.90;999.90;;;;;;;21.75;100.00;99310.47;5047924;28;20136;-55
2022/08/14 06:31:10;;;;;;;1999.90;999.90;;;;;;;22.10;100.00;99304.13;5050824;28;20051;-52
2022/08/14 06:33:55;;;;;;;1999.90;999.90;;;;;;;21.67;100.00;99303.06;5050531;28;21139;-53
2022/08/14 06:36:40;;;;;;;1999.90;999.90;;;;;;;21.87;100.00;99301.50;5052692;28;20427;-54
2022/08/14 06:39:24;;;;;;;1999.90;999.90;;;;;;;22.18;100.00;99293.72;5052067;28;20048;-54
2022/08/14 06:42:09;;;;;;;1999.90;999.90;;;;;;;22.62;100.00;99295.41;5053974;28;20049;-54
2022/08/14 06:44:54;;;;;;;1999.90;999.90;;;;;;;22.78;100.00;99299.44;5052314;28;20053;-54
2022/08/14 06:47:41;;;;;;;1999.90;999.90;;;;;;;23.22;100.00;99287.72;5055694;28;20183;-57
2022/08/14 06:50:28;;;;;;;1999.90;999.90;;;;;;;23.64;100.00;99282.31;5053929;28;20049;-57
2022/08/14 06:53:13;;;;;;;1999.90;999.90;;;;;;;23.52;100.00;99294.91;5055386;28;20052;-58
2022/08/14 06:55:58;;;;;;;1999.90;999.90;;;;;;;23.75;100.00;99287.56;5055629;28;20044;-60
2022/08/14 06:58:46;;;;;;;1999.90;999.90;;;;;;;23.95;100.00;99287.63;5055329;28;20483;-62
2022/08/14 07:07:40;;;;;;;1999.90;999.90;;;;;;;22.68;100.00;99280.69;5053151;28;20056;-57
2022/08/14 07:10:24;;;;;;;1999.90;999.90;;;;;;;23.11;100.00;99287.81;5051658;28;20589;-57
2022/08/14 07:13:10;;;;;;;1999.90;999.90;;;;;;;22.64;100.00;99289.94;5052668;28;20051;-58
2022/08/14 07:15:56;;;;;;;1999.90;999.90;;;;;;;22.88;100.00;99287.03;5052098;28;20040;-58
2022/08/14 07:18:41;;;;;;;1999.90;999.90;;;;;;;22.79;100.00;99288.66;5062092;28;20523;-57
2022/08/14 07:21:25;;;;;;;1999.90;999.90;;;;;;;22.52;100.00;99298.94;5051862;28;20054;-58
2022/08/14 07:24:10;;;;;;;1999.90;999.90;;;;;;;22.80;100.00;99287.66;5059279;28;20129;-59
2022/08/14 07:26:54;;;;;;;1999.90;999.90;;;;;;;22.39;100.00;99297.31;5057861;28;20043;-59
2022/08/14 07:29:39;;;;;;;1999.90;999.90;;;;;;;21.96;100.00;99288.38;5057928;28;20232;-58
2022/08/14 07:32:23;;;;;;;1999.90;999.90;;;;;;;22.03;100.00;99292.25;5056380;28;20053;-59
2022/08/14 07:35:07;;;;;;;1999.90;999.90;;;;;;;22.22;100.00;99288.97;5053333;28;20807;-55
2022/08/14 07:37:52;;;;;;;1999.90;999.90;;;;;;;21.74;100.00;99294.56;5054297;28;20376;-52
2022/08/14 07:40:37;;;;;;;1999.90;999.90;;;;;;;21.79;100.00;99292.41;5055024;28;20064;-53
2022/08/14 07:43:22;;;;;;;1999.90;999.90;;;;;;;21.82;100.00;99293.00;5055468;28;20055;-53
2022/08/14 07:46:06;;;;;;;1999.90;999.90;;;;;;;21.99;100.00;99291.66;5050951;28;20063;-53
2022/08/14 07:48:51;;;;;;;1999.90;999.90;;;;;;;21.50;100.00;99292.88;5054900;28;20047;-53
2022/08/14 07:51:38;;;;;;;1999.90;999.90;;;;;;;22.04;100.00;99278.81;5061903;28;20507;-53
2022/08/14 07:54:22;;;;;;;1999.90;999.90;;;;;;;21.98;100.00;99284.63;5052452;28;21381;-52
2022/08/14 07:57:07;;;;;;;1999.90;999.90;;;;;;;21.97;100.00;99279.41;5058808;28;20070;-52
2022/08/14 07:59:51;;;;;;;1999.90;999.90;;;;;;;21.90;100.00;99279.94;5059885;28;20935;-52
2022/08/14 08:02:38;;;;;;;1999.90;999.90;;;;;;;21.42;100.00;99271.34;5066174;28;20096;-51
2022/08/14 08:05:24;;;;;;;1999.90;999.90;;;;;;;21.33;100.00;99277.34;5063832;28;20170;-53
2022/08/14 08:08:10;;;;;;;1999.90;999.90;;;;;;;21.37;100.00;99271.69;5054122;28;20040;-53
2022/08/14 08:10:56;;;;;;;1999.90;999.90;;;;;;;21.21;100.00;99276.47;5062219;28;20052;-53
2022/08/14 08:13:41;;;;;;;1999.90;999.90;;;;;;;21.20;100.00;99277.44;5069137;28;20047;-52
2022/08/14 08:16:27;;;;;;;1999.90;999.90;;;;;;;21.17;100.00;99275.03;5059801;28;20098;-53
2022/08/14 08:19:12;;;;;;;1999.90;999.90;;;;;;;21.10;100.00;99271.97;5059282;28;20498;-53
2022/08/14 08:22:02;;;;;;;1999.90;999.90;;;;;;;21.17;100.00;99269.69;5066564;28;20075;-52
2022/08/14 08:24:46;;;;;;;1999.90;999.90;;;;;;;21.07;100.00;99264.22;5065523;28;20052;-52
2022/08/14 08:27:30;;;;;;;1999.90;999.90;;;;;;;21.31;100.00;99265.97;5058477;28;20106;-52
2022/08/14 08:30:15;;;;;;;1999.90;999.90;;;;;;;21.69;100.00;99271.81;5058247;28;20049;-52
2022/08/14 08:33:00;;;;;;;1999.90;999.90;;;;;;;21.47;100.00;99269.16;5063796;28;20048;-51
2022/08/14 08:35:46;;;;;;;1999.90;999.90;;;;;;;21.78;100.00;99267.56;5064901;28;21548;-52
2022/08/14 08:38:30;;;;;;;1999.90;999.90;;;;;;;21.94;100.00;99260.03;5061174;28;20048;-52
2022/08/14 08:41:15;;;;;;;1999.90;999.90;;;;;;;21.85;100.00;99273.25;5069803;28;20044;-52
2022/08/14 08:44:03;;;;;;;1999.90;999.90;;;;;;;22.03;100.00;99266.44;5068902;28;20055;-52
2022/08/14 08:46:57;;;;;;;1999.90;999.90;;;;;;;22.12;100.00;99268.34;5064370;28;20514;-52
2022/08/14 08:49:41;;;;;;;1999.90;999.90;;;;;;;22.23;100.00;99264.00;5065311;28;20403;-52
2022/08/14 08:52:29;;;;;;;1999.90;999.90;;;;;;;21.83;100.00;99256.53;5063539;28;20047;-52
2022/08/14 08:55:14;;;;;;;1999.90;999.90;;;;;;;21.73;100.00;99259.09;5056553;28;20048;-52
2022/08/14 08:58:02;;;;;;;1999.90;999.90;;;;;;;21.38;100.00;99252.06;5063697;28;20071;-52
2022/08/14 09:00:49;;;;;;;1999.90;999.90;;;;;;;21.50;100.00;99260.06;5062890;28;20230;-52
2022/08/14 09:03:35;;;;;;;1999.90;999.90;;;;;;;21.49;100.00;99259.22;5068852;28;20097;-52
2022/08/14 09:06:19;;;;;;;1999.90;999.90;;;;;;;21.74;100.00;99257.25;5066353;28;20037;-52
2022/08/14 09:09:04;;;;;;;1999.90;999.90;;;;;;;21.71;100.00;99255.72;5068304;28;20078;-52
2022/08/14 09:11:49;;;;;;;1999.90;999.90;;;;;;;21.41;100.00;99257.16;5071751;28;20078;-52
2022/08/14 09:14:35;;;;;;;1999.90;999.90;;;;;;;21.60;100.00;99251.22;5064313;28;20715;-53
2022/08/14 09:17:20;;;;;;;1999.90;999.90;;;;;;;21.48;100.00;99246.84;5053065;28;20083;-52
2022/08/14 09:20:05;;;;;;;1999.90;999.90;;;;;;;21.46;100.00;99243.47;5064802;28;20098;-52
2022/08/14 09:22:51;;;;;;;1999.90;999.90;;;;;;;21.15;100.00;99248.50;5055286;28;20929;-52
2022/08/14 09:25:37;;;;;;;1999.90;999.90;;;;;;;21.29;100.00;99246.59;5065054;28;20384;-52
2022/08/14 09:28:21;;;;;;;1999.90;999.90;;;;;;;21.19;100.00;99242.00;5065312;28;20077;-52
2022/08/14 09:31:08;;;;;;;1999.90;999.90;;;;;;;21.26;100.00;99245.03;5065332;28;20113;-51
2022/08/14 09:34:11;;;;;;;1999.90;999.90;;;;;;;21.08;100.00;99243.78;5066372;28;20494;-52
2022/08/14 09:37:15;;;;;;;1999.90;999.90;;;;;;;21.19;100.00;99235.81;5061761;28;20048;-52
2022/08/14 09:40:18;;;;;;;1999.90;999.90;;;;;;;21.22;100.00;99235.56;5064746;28;20063;-52
2022/08/14 09:43:25;;;;;;;1999.90;999.90;;;;;;;21.26;100.00;99237.03;5063423;28;20588;-52
2022/08/14 09:46:11;;;;;;;1999.90;999.90;;;;;;;21.36;100.00;99240.69;5034125;28;20539;-52
2022/08/14 09:49:00;;;;;;;1999.90;999.90;;;;;;;21.40;100.00;99235.97;5057103;28;20100;-52
2022/08/14 09:51:47;;;;;;;1999.90;999.90;;;;;;;21.47;100.00;99230.03;5057206;28;20060;-53
2022/08/14 09:54:58;;;;;;;1999.90;999.90;;;;;;;22.32;100.00;99232.06;5054687;28;20064;-52
2022/08/14 09:57:44;;;;;;;1999.90;999.90;;;;;;;22.52;100.00;99248.25;5055971;28;20084;-52
2022/08/14 10:01:06;;;;;;;1999.90;999.90;;;;;;;22.50;100.00;99242.22;5057502;28;20118;-53
2022/08/14 10:03:54;;;;;;;1999.90;999.90;;;;;;;22.42;100.00;99226.81;5042324;28;20126;-53
2022/08/14 10:06:45;;;;;;;1999.90;999.90;;;;;;;22.90;100.00;99236.19;5055744;28;20037;-52
2022/08/14 10:09:30;;;;;;;1999.90;999.90;;;;;;;22.87;100.00;99234.59;5051670;28;20585;-52
2022/08/14 10:12:15;;;;;;;1999.90;999.90;;;;;;;22.61;100.00;99231.47;5047456;28;20389;-52
2022/08/14 10:14:59;;;;;;;1999.90;999.90;;;;;;;22.69;100.00;99233.53;5053811;28;20751;-54
2022/08/14 10:17:45;;;;;;;1999.90;999.90;;;;;;;22.52;100.00;99225.09;5054032;28;20737;-53
2022/08/14 10:20:54;;;;;;;1999.90;999.90;;;;;;;22.32;100.00;99224.06;5062872;28;20080;-52
2022/08/14 10:23:42;;;;;;;1999.90;999.90;;;;;;;22.45;100.00;99217.72;5050528;28;20048;-51
2022/08/14 10:26:26;;;;;;;1999.90;999.90;;;;;;;22.50;100.00;99219.03;5059121;28;20079;-54
2022/08/14 10:29:16;;;;;;;1999.90;999.90;;;;;;;22.21;100.00;99204.63;5067228;28;20901;-53
2022/08/14 10:32:00;;;;;;;1999.90;999.90;;;;;;;22.03;100.00;99196.25;5063444;28;20110;-54
2022/08/14 10:34:46;;;;;;;1999.90;999.90;;;;;;;22.23;100.00;99206.19;5058067;28;20573;-53
2022/08/14 10:37:41;;;;;;;1999.90;999.90;;;;;;;22.68;100.00;99208.63;5053797;28;20118;-53
2022/08/14 10:40:28;;;;;;;1999.90;999.90;;;;;;;22.37;100.00;99215.72;5050759;28;20053;-52
2022/08/14 10:43:17;;;;;;;1999.90;999.90;;;;;;;22.52;100.00;99205.56;5053300;28;20059;-53
2022/08/14 10:46:14;;;;;;;1999.90;999.90;;;;;;;22.77;100.00;99205.19;5054256;28;20106;-54
2022/08/14 10:49:03;;;;;;;1999.90;999.90;;;;;;;23.70;100.00;99204.28;5061632;28;20040;-52
2022/08/14 10:52:22;;;;;;;1999.90;999.90;;;;;;;23.51;100.00;99202.34;5056071;28;20072;-53
2022/08/14 10:55:12;;;;;;;1999.90;999.90;;;;;;;22.97;100.00;99200.00;5053956;28;20053;-52
2022/08/14 10:57:58;;;;;;;1999.90;999.90;;;;;;;23.27;100.00;99196.50;5068950;28;20082;-53
2022/08/14 11:00:55;;;;;;;1999.90;999.90;;;;;;;22.65;100.00;99203.53;5065431;28;20059;-53
2022/08/14 11:03:41;;;;;;;1999.90;999.90;;;;;;;22.64;100.00;99209.88;5071309;28;20106;-53
2022/08/14 11:06:27;;;;;;;1999.90;999.90;;;;;;;22.82;100.00;99202.13;5060968;28;20115;-53
2022/08/14 11:09:13;;;;;;;1999.90;999.90;;;;;;;22.53;100.00;99204.59;5059271;28;20048;-55
2022/08/14 11:11:57;;;;;;;1999.90;999.90;;;;;;;22.41;100.00;99206.47;5062413;28;20161;-55
2022/08/14 11:14:41;;;;;;;1999.90;999.90;;;;;;;22.82;100.00;99205.66;5068114;28;20483;-52
2022/08/14 11:17:27;;;;;;;1999.90;999.90;;;;;;;23.05;100.00;99200.19;5059616;28;20109;-53
2022/08/14 11:20:13;;;;;;;1999.90;999.90;;;;;;;23.46;100.00;99198.38;5060301;28;20055;-54
2022/08/14 11:23:00;;;;;;;1999.90;999.90;;;;;;;23.50;100.00;99202.50;5057241;28;20040;-53
2022/08/14 11:25:48;;;;;;;1999.90;999.90;;;;;;;23.75;100.00;99187.81;5062532;28;20048;-53
2022/08/14 11:28:37;;;;;;;1999.90;999.90;;;;;;;23.79;100.00;99190.09;5064063;28;20048;-53
2022/08/14 11:31:22;;;;;;;1999.90;999.90;;;;;;;23.50;100.00;99189.16;5060228;28;20048;-53
2022/08/14 11:34:07;;;;;;;1999.90;999.90;;;;;;;23.36;100.00;99186.81;5060440;28;20037;-53
2022/08/14 11:36:51;;;;;;;1999.90;999.90;;;;;;;23.52;100.00;99180.00;5058917;28;20059;-53
2022/08/14 11:39:36;;;;;;;1999.90;999.90;;;;;;;23.60;100.00;99173.13;5057163;28;20051;-53
2022/08/14 11:42:24;;;;;;;1999.90;999.90;;;;;;;23.39;100.00;99176.72;5057438;28;20060;-53
2022/08/14 11:45:09;;;;;;;1999.90;999.90;;;;;;;23.79;100.00;99170.53;5056088;28;20045;-53
2022/08/14 11:47:55;;;;;;;1999.90;999.90;;;;;;;24.02;100.00;99160.44;5057702;28;20121;-54
2022/08/14 11:50:39;;;;;;;1999.90;999.90;;;;;;;24.83;100.00;99169.00;5059030;28;20087;-53
2022/08/14 11:53:30;;;;;;;1999.90;999.90;;;;;;;24.30;100.00;99169.44;5058457;28;20060;-54
2022/08/14 11:56:14;;;;;;;1999.90;999.90;;;;;;;25.30;100.00;99184.22;5055193;28;20456;-53
2022/08/14 11:58:58;;;;;;;1999.90;999.90;;;;;;;24.84;100.00;99172.50;5056078;28;20101;-53
2022/08/14 12:01:46;;;;;;;1999.90;999.90;;;;;;;25.38;100.00;99171.78;5051181;28;20064;-53
2022/08/14 12:04:31;;;;;;;1999.90;999.90;;;;;;;25.41;100.00;99167.94;5052194;28;20045;-55
2022/08/14 12:07:16;;;;;;;1999.90;999.90;;;;;;;25.45;100.00;99172.03;5053772;28;20040;-54
2022/08/14 12:10:01;;;;;;;1999.90;999.90;;;;;;;24.89;100.00;99164.88;5056146;28;20068;-52
2022/08/14 12:12:47;;;;;;;1999.90;999.90;;;;;;;25.09;100.00;99154.94;5055877;28;20044;-54
2022/08/14 12:15:34;;;;;;;1999.90;999.90;;;;;;;24.76;100.00;99164.34;5053183;28;20080;-53
2022/08/14 12:18:28;;;;;;;1999.90;999.90;;;;;;;24.81;100.00;99159.41;5055459;28;20091;-53
2022/08/14 12:21:16;;;;;;;1999.90;999.90;;;;;;;25.06;100.00;99148.06;5050948;28;20064;-54
2022/08/14 12:24:04;;;;;;;1999.90;999.90;;;;;;;25.69;100.00;99152.72;5052817;28;20064;-53
2022/08/14 12:26:55;;;;;;;1999.90;999.90;;;;;;;25.66;100.00;99136.91;5053290;28;20233;-54